sensor_id;sensor_type;location;lat;lon;timestamp;P1;durP1;ratioP1;P2;durP2;ratioP2
27003;SDS011;14546;47.590;19.022;2023-04-07T00:00:50;35.13;;;25.13;;
27003;SDS011;14546;47.590;19.022;2023-04-07T00:03:15;38.50;;;25.58;;
27003;SDS011;14546;47.590;19.022;2023-04-07T00:05:41;39.70;;;25.67;;
27003;SDS011;14546;47.590;19.022;2023-04-07T00:08:07;39.08;;;26.92;;
27003;SDS011;14546;47.590;19.022;2023-04-07T00:10:32;38.45;;;26.88;;
27003;SDS011;14546;47.590;19.022;2023-04-07T00:12:58;41.75;;;27.00;;
27003;SDS011;14546;47.590;19.022;2023-04-07T00:15:24;41.28;;;26.88;;
27003;SDS011;14546;47.590;19.022;2023-04-07T00:17:50;44.40;;;27.15;;
27003;SDS011;14546;47.590;19.022;2023-04-07T00:20:16;42.30;;;26.48;;
27003;SDS011;14546;47.590;19.022;2023-04-07T00:22:42;42.90;;;27.75;;
27003;SDS011;14546;47.590;19.022;2023-04-07T00:25:07;41.33;;;27.27;;
27003;SDS011;14546;47.590;19.022;2023-04-07T00:27:33;44.13;;;28.63;;
27003;SDS011;14546;47.590;19.022;2023-04-07T00:29:59;38.53;;;26.27;;
27003;SDS011;14546;47.590;19.022;2023-04-07T00:32:25;42.53;;;27.23;;
27003;SDS011;14546;47.590;19.022;2023-04-07T00:34:50;45.58;;;28.60;;
27003;SDS011;14546;47.590;19.022;2023-04-07T00:37:16;43.05;;;27.50;;
27003;SDS011;14546;47.590;19.022;2023-04-07T00:39:43;43.97;;;28.02;;
27003;SDS011;14546;47.590;19.022;2023-04-07T00:42:09;38.88;;;27.50;;
27003;SDS011;14546;47.590;19.022;2023-04-07T00:44:35;43.78;;;28.15;;
27003;SDS011;14546;47.590;19.022;2023-04-07T00:47:00;42.05;;;28.48;;
27003;SDS011;14546;47.590;19.022;2023-04-07T00:49:26;44.15;;;27.65;;
27003;SDS011;14546;47.590;19.022;2023-04-07T00:51:53;39.88;;;27.58;;
27003;SDS011;14546;47.590;19.022;2023-04-07T00:54:20;45.40;;;29.25;;
27003;SDS011;14546;47.590;19.022;2023-04-07T00:56:47;37.95;;;26.85;;
27003;SDS011;14546;47.590;19.022;2023-04-07T00:59:13;41.65;;;27.83;;
27003;SDS011;14546;47.590;19.022;2023-04-07T01:01:42;37.97;;;28.05;;
27003;SDS011;14546;47.590;19.022;2023-04-07T01:04:14;38.88;;;27.17;;
27003;SDS011;14546;47.590;19.022;2023-04-07T01:06:58;39.47;;;26.73;;
27003;SDS011;14546;47.590;19.022;2023-04-07T01:09:40;40.60;;;27.20;;
27003;SDS011;14546;47.590;19.022;2023-04-07T01:12:14;44.67;;;27.85;;
27003;SDS011;14546;47.590;19.022;2023-04-07T01:14:49;44.40;;;28.13;;
27003;SDS011;14546;47.590;19.022;2023-04-07T01:17:18;40.08;;;27.60;;
27003;SDS011;14546;47.590;19.022;2023-04-07T01:22:13;39.55;;;27.60;;
27003;SDS011;14546;47.590;19.022;2023-04-07T01:24:45;40.95;;;27.73;;
27003;SDS011;14546;47.590;19.022;2023-04-07T01:30:06;44.97;;;28.17;;
27003;SDS011;14546;47.590;19.022;2023-04-07T01:32:36;40.42;;;27.60;;
27003;SDS011;14546;47.590;19.022;2023-04-07T01:35:05;41.55;;;27.67;;
27003;SDS011;14546;47.590;19.022;2023-04-07T01:37:34;41.90;;;27.05;;
27003;SDS011;14546;47.590;19.022;2023-04-07T01:40:02;39.72;;;27.60;;
27003;SDS011;14546;47.590;19.022;2023-04-07T01:42:29;40.08;;;27.50;;
27003;SDS011;14546;47.590;19.022;2023-04-07T01:44:56;39.80;;;26.75;;
27003;SDS011;14546;47.590;19.022;2023-04-07T01:47:23;37.70;;;27.90;;
27003;SDS011;14546;47.590;19.022;2023-04-07T01:49:51;40.25;;;27.88;;
27003;SDS011;14546;47.590;19.022;2023-04-07T01:52:19;44.85;;;28.13;;
27003;SDS011;14546;47.590;19.022;2023-04-07T01:54:45;34.35;;;24.60;;
27003;SDS011;14546;47.590;19.022;2023-04-07T01:57:11;36.42;;;25.38;;
27003;SDS011;14546;47.590;19.022;2023-04-07T01:59:37;38.10;;;26.42;;
27003;SDS011;14546;47.590;19.022;2023-04-07T02:02:03;35.63;;;24.52;;
27003;SDS011;14546;47.590;19.022;2023-04-07T02:10:01;35.78;;;25.48;;
27003;SDS011;14546;47.590;19.022;2023-04-07T02:12:30;40.72;;;25.70;;
27003;SDS011;14546;47.590;19.022;2023-04-07T02:15:03;40.85;;;25.35;;
27003;SDS011;14546;47.590;19.022;2023-04-07T02:17:32;40.33;;;25.15;;
27003;SDS011;14546;47.590;19.022;2023-04-07T02:20:01;35.10;;;24.23;;
27003;SDS011;14546;47.590;19.022;2023-04-07T02:22:29;33.53;;;23.30;;
27003;SDS011;14546;47.590;19.022;2023-04-07T02:24:55;36.10;;;23.70;;
27003;SDS011;14546;47.590;19.022;2023-04-07T02:27:21;39.58;;;24.73;;
27003;SDS011;14546;47.590;19.022;2023-04-07T02:29:47;37.03;;;23.63;;
27003;SDS011;14546;47.590;19.022;2023-04-07T02:32:12;35.78;;;24.27;;
27003;SDS011;14546;47.590;19.022;2023-04-07T02:34:38;34.00;;;23.98;;
27003;SDS011;14546;47.590;19.022;2023-04-07T02:37:04;35.55;;;24.23;;
27003;SDS011;14546;47.590;19.022;2023-04-07T02:39:30;35.55;;;23.38;;
27003;SDS011;14546;47.590;19.022;2023-04-07T02:41:55;34.95;;;23.27;;
27003;SDS011;14546;47.590;19.022;2023-04-07T02:44:21;35.75;;;24.73;;
27003;SDS011;14546;47.590;19.022;2023-04-07T02:46:50;37.70;;;24.00;;
27003;SDS011;14546;47.590;19.022;2023-04-07T02:49:15;37.60;;;23.88;;
27003;SDS011;14546;47.590;19.022;2023-04-07T02:51:41;34.92;;;24.33;;
27003;SDS011;14546;47.590;19.022;2023-04-07T02:54:07;37.90;;;24.73;;
27003;SDS011;14546;47.590;19.022;2023-04-07T02:56:32;38.00;;;23.60;;
27003;SDS011;14546;47.590;19.022;2023-04-07T02:58:58;38.67;;;25.75;;
27003;SDS011;14546;47.590;19.022;2023-04-07T03:01:24;38.40;;;24.05;;
27003;SDS011;14546;47.590;19.022;2023-04-07T03:03:49;39.67;;;25.65;;
27003;SDS011;14546;47.590;19.022;2023-04-07T03:06:15;36.72;;;24.90;;
27003;SDS011;14546;47.590;19.022;2023-04-07T03:08:41;34.38;;;24.48;;
27003;SDS011;14546;47.590;19.022;2023-04-07T03:11:06;35.40;;;25.02;;
27003;SDS011;14546;47.590;19.022;2023-04-07T03:13:32;37.15;;;24.63;;
27003;SDS011;14546;47.590;19.022;2023-04-07T03:15:58;34.17;;;24.48;;
27003;SDS011;14546;47.590;19.022;2023-04-07T03:18:23;33.50;;;24.13;;
27003;SDS011;14546;47.590;19.022;2023-04-07T03:20:49;35.75;;;25.85;;
27003;SDS011;14546;47.590;19.022;2023-04-07T03:23:17;34.22;;;23.73;;
27003;SDS011;14546;47.590;19.022;2023-04-07T03:25:43;36.42;;;25.77;;
27003;SDS011;14546;47.590;19.022;2023-04-07T03:28:08;42.15;;;26.20;;
27003;SDS011;14546;47.590;19.022;2023-04-07T03:30:34;37.55;;;25.27;;
27003;SDS011;14546;47.590;19.022;2023-04-07T03:33:00;39.45;;;26.60;;
27003;SDS011;14546;47.590;19.022;2023-04-07T03:35:26;38.70;;;26.73;;
27003;SDS011;14546;47.590;19.022;2023-04-07T03:37:52;42.13;;;26.77;;
27003;SDS011;14546;47.590;19.022;2023-04-07T03:40:17;40.28;;;25.85;;
27003;SDS011;14546;47.590;19.022;2023-04-07T03:42:44;37.22;;;24.60;;
27003;SDS011;14546;47.590;19.022;2023-04-07T03:45:10;41.15;;;24.77;;
27003;SDS011;14546;47.590;19.022;2023-04-07T03:47:36;36.70;;;26.08;;
27003;SDS011;14546;47.590;19.022;2023-04-07T03:50:02;39.75;;;25.88;;
27003;SDS011;14546;47.590;19.022;2023-04-07T03:52:27;35.88;;;26.10;;
27003;SDS011;14546;47.590;19.022;2023-04-07T03:54:53;40.65;;;24.10;;
27003;SDS011;14546;47.590;19.022;2023-04-07T03:57:19;45.08;;;25.08;;
27003;SDS011;14546;47.590;19.022;2023-04-07T03:59:45;38.15;;;25.48;;
27003;SDS011;14546;47.590;19.022;2023-04-07T04:02:15;36.92;;;24.98;;
27003;SDS011;14546;47.590;19.022;2023-04-07T04:04:41;35.13;;;24.33;;
27003;SDS011;14546;47.590;19.022;2023-04-07T04:07:06;40.17;;;25.90;;
27003;SDS011;14546;47.590;19.022;2023-04-07T04:09:32;41.05;;;27.77;;
27003;SDS011;14546;47.590;19.022;2023-04-07T04:11:58;43.95;;;28.08;;
27003;SDS011;14546;47.590;19.022;2023-04-07T04:14:23;42.55;;;27.65;;
27003;SDS011;14546;47.590;19.022;2023-04-07T04:16:49;37.72;;;26.58;;
27003;SDS011;14546;47.590;19.022;2023-04-07T04:19:14;37.58;;;26.35;;
27003;SDS011;14546;47.590;19.022;2023-04-07T04:21:40;41.17;;;27.02;;
27003;SDS011;14546;47.590;19.022;2023-04-07T04:24:06;38.22;;;25.52;;
27003;SDS011;14546;47.590;19.022;2023-04-07T04:26:31;37.80;;;26.35;;
27003;SDS011;14546;47.590;19.022;2023-04-07T04:28:57;40.80;;;26.88;;
27003;SDS011;14546;47.590;19.022;2023-04-07T04:31:23;40.38;;;27.13;;
27003;SDS011;14546;47.590;19.022;2023-04-07T04:33:48;37.25;;;27.15;;
27003;SDS011;14546;47.590;19.022;2023-04-07T04:36:14;36.55;;;26.20;;
27003;SDS011;14546;47.590;19.022;2023-04-07T04:38:40;36.35;;;25.30;;
27003;SDS011;14546;47.590;19.022;2023-04-07T04:41:06;37.72;;;26.38;;
27003;SDS011;14546;47.590;19.022;2023-04-07T04:43:31;37.72;;;25.55;;
27003;SDS011;14546;47.590;19.022;2023-04-07T04:45:57;35.00;;;24.30;;
27003;SDS011;14546;47.590;19.022;2023-04-07T04:48:23;36.00;;;24.88;;
27003;SDS011;14546;47.590;19.022;2023-04-07T04:50:49;38.20;;;24.48;;
27003;SDS011;14546;47.590;19.022;2023-04-07T04:53:14;39.40;;;25.98;;
27003;SDS011;14546;47.590;19.022;2023-04-07T04:55:40;38.53;;;25.73;;
27003;SDS011;14546;47.590;19.022;2023-04-07T04:58:10;40.05;;;25.25;;
27003;SDS011;14546;47.590;19.022;2023-04-07T05:00:36;35.65;;;24.92;;
27003;SDS011;14546;47.590;19.022;2023-04-07T05:03:02;38.03;;;24.73;;
27003;SDS011;14546;47.590;19.022;2023-04-07T05:05:28;35.97;;;24.27;;
27003;SDS011;14546;47.590;19.022;2023-04-07T05:07:53;39.40;;;26.10;;
27003;SDS011;14546;47.590;19.022;2023-04-07T05:10:19;35.05;;;23.58;;
27003;SDS011;14546;47.590;19.022;2023-04-07T05:12:45;38.15;;;25.63;;
27003;SDS011;14546;47.590;19.022;2023-04-07T05:15:11;35.33;;;24.52;;
27003;SDS011;14546;47.590;19.022;2023-04-07T05:17:36;35.80;;;25.35;;
27003;SDS011;14546;47.590;19.022;2023-04-07T05:20:02;36.45;;;25.30;;
27003;SDS011;14546;47.590;19.022;2023-04-07T05:22:28;55.20;;;26.52;;
27003;SDS011;14546;47.590;19.022;2023-04-07T05:24:54;36.00;;;25.95;;
27003;SDS011;14546;47.590;19.022;2023-04-07T05:27:20;37.63;;;26.00;;
27003;SDS011;14546;47.590;19.022;2023-04-07T05:29:46;40.22;;;26.42;;
27003;SDS011;14546;47.590;19.022;2023-04-07T05:32:11;38.88;;;26.33;;
27003;SDS011;14546;47.590;19.022;2023-04-07T05:34:37;40.97;;;26.70;;
27003;SDS011;14546;47.590;19.022;2023-04-07T05:37:02;39.67;;;27.05;;
27003;SDS011;14546;47.590;19.022;2023-04-07T05:39:28;38.92;;;26.88;;
27003;SDS011;14546;47.590;19.022;2023-04-07T05:41:54;39.95;;;27.88;;
27003;SDS011;14546;47.590;19.022;2023-04-07T05:44:21;37.08;;;26.55;;
27003;SDS011;14546;47.590;19.022;2023-04-07T05:46:46;37.53;;;26.83;;
27003;SDS011;14546;47.590;19.022;2023-04-07T05:49:12;45.20;;;27.75;;
27003;SDS011;14546;47.590;19.022;2023-04-07T05:51:38;38.90;;;27.08;;
27003;SDS011;14546;47.590;19.022;2023-04-07T05:54:04;41.40;;;27.65;;
27003;SDS011;14546;47.590;19.022;2023-04-07T05:56:30;42.03;;;28.58;;
27003;SDS011;14546;47.590;19.022;2023-04-07T05:58:56;42.83;;;28.20;;
27003;SDS011;14546;47.590;19.022;2023-04-07T06:01:23;39.35;;;27.58;;
27003;SDS011;14546;47.590;19.022;2023-04-07T06:03:49;38.05;;;27.00;;
27003;SDS011;14546;47.590;19.022;2023-04-07T06:06:15;36.75;;;27.13;;
27003;SDS011;14546;47.590;19.022;2023-04-07T06:08:41;41.33;;;27.95;;
27003;SDS011;14546;47.590;19.022;2023-04-07T06:11:06;40.80;;;27.85;;
27003;SDS011;14546;47.590;19.022;2023-04-07T06:13:32;37.85;;;26.67;;
27003;SDS011;14546;47.590;19.022;2023-04-07T06:15:58;39.78;;;27.73;;
27003;SDS011;14546;47.590;19.022;2023-04-07T06:18:23;46.15;;;28.08;;
27003;SDS011;14546;47.590;19.022;2023-04-07T06:20:49;37.38;;;28.08;;
27003;SDS011;14546;47.590;19.022;2023-04-07T06:23:18;38.80;;;24.38;;
27003;SDS011;14546;47.590;19.022;2023-04-07T06:25:43;40.72;;;28.40;;
27003;SDS011;14546;47.590;19.022;2023-04-07T06:28:09;40.72;;;28.63;;
27003;SDS011;14546;47.590;19.022;2023-04-07T06:30:35;37.58;;;28.55;;
27003;SDS011;14546;47.590;19.022;2023-04-07T06:33:01;42.92;;;29.60;;
27003;SDS011;14546;47.590;19.022;2023-04-07T06:35:26;38.42;;;27.20;;
27003;SDS011;14546;47.590;19.022;2023-04-07T06:37:52;39.95;;;28.20;;
27003;SDS011;14546;47.590;19.022;2023-04-07T06:40:18;38.08;;;29.05;;
27003;SDS011;14546;47.590;19.022;2023-04-07T06:42:44;45.42;;;29.63;;
27003;SDS011;14546;47.590;19.022;2023-04-07T06:45:10;43.58;;;29.83;;
27003;SDS011;14546;47.590;19.022;2023-04-07T06:47:35;58.78;;;28.52;;
27003;SDS011;14546;47.590;19.022;2023-04-07T06:50:02;38.92;;;27.20;;
27003;SDS011;14546;47.590;19.022;2023-04-07T06:52:28;41.72;;;28.88;;
27003;SDS011;14546;47.590;19.022;2023-04-07T06:54:53;44.03;;;29.27;;
27003;SDS011;14546;47.590;19.022;2023-04-07T06:57:19;41.90;;;28.30;;
27003;SDS011;14546;47.590;19.022;2023-04-07T06:59:45;39.60;;;28.17;;
27003;SDS011;14546;47.590;19.022;2023-04-07T07:02:11;34.17;;;24.98;;
27003;SDS011;14546;47.590;19.022;2023-04-07T07:04:36;36.65;;;25.85;;
27003;SDS011;14546;47.590;19.022;2023-04-07T07:07:02;35.25;;;26.75;;
27003;SDS011;14546;47.590;19.022;2023-04-07T07:09:28;35.97;;;25.80;;
27003;SDS011;14546;47.590;19.022;2023-04-07T07:11:54;36.92;;;27.17;;
27003;SDS011;14546;47.590;19.022;2023-04-07T07:14:20;36.47;;;26.80;;
27003;SDS011;14546;47.590;19.022;2023-04-07T07:16:45;38.78;;;26.60;;
27003;SDS011;14546;47.590;19.022;2023-04-07T07:19:11;34.05;;;26.20;;
27003;SDS011;14546;47.590;19.022;2023-04-07T07:21:38;40.60;;;27.55;;
27003;SDS011;14546;47.590;19.022;2023-04-07T07:24:04;36.65;;;25.70;;
27003;SDS011;14546;47.590;19.022;2023-04-07T07:26:30;33.90;;;24.88;;
27003;SDS011;14546;47.590;19.022;2023-04-07T07:28:55;36.03;;;25.42;;
27003;SDS011;14546;47.590;19.022;2023-04-07T07:31:21;34.75;;;26.27;;
27003;SDS011;14546;47.590;19.022;2023-04-07T07:33:47;38.95;;;28.02;;
27003;SDS011;14546;47.590;19.022;2023-04-07T07:36:15;37.85;;;26.35;;
27003;SDS011;14546;47.590;19.022;2023-04-07T07:38:41;37.53;;;26.52;;
27003;SDS011;14546;47.590;19.022;2023-04-07T07:41:07;41.97;;;27.10;;
27003;SDS011;14546;47.590;19.022;2023-04-07T07:43:32;37.40;;;27.23;;
27003;SDS011;14546;47.590;19.022;2023-04-07T07:45:58;39.38;;;27.88;;
27003;SDS011;14546;47.590;19.022;2023-04-07T07:48:24;38.80;;;28.50;;
27003;SDS011;14546;47.590;19.022;2023-04-07T07:50:50;41.63;;;28.00;;
27003;SDS011;14546;47.590;19.022;2023-04-07T07:53:16;39.70;;;28.75;;
27003;SDS011;14546;47.590;19.022;2023-04-07T07:55:42;38.65;;;28.83;;
27003;SDS011;14546;47.590;19.022;2023-04-07T07:58:09;37.33;;;27.38;;
27003;SDS011;14546;47.590;19.022;2023-04-07T08:00:34;38.40;;;27.40;;
27003;SDS011;14546;47.590;19.022;2023-04-07T08:03:00;38.50;;;27.92;;
27003;SDS011;14546;47.590;19.022;2023-04-07T08:05:26;41.97;;;28.40;;
27003;SDS011;14546;47.590;19.022;2023-04-07T08:07:52;43.47;;;29.67;;
27003;SDS011;14546;47.590;19.022;2023-04-07T08:10:19;38.35;;;27.35;;
27003;SDS011;14546;47.590;19.022;2023-04-07T08:12:49;36.92;;;28.52;;
27003;SDS011;14546;47.590;19.022;2023-04-07T08:15:15;37.92;;;27.80;;
27003;SDS011;14546;47.590;19.022;2023-04-07T08:17:41;35.85;;;25.92;;
27003;SDS011;14546;47.590;19.022;2023-04-07T08:20:09;37.53;;;28.33;;
27003;SDS011;14546;47.590;19.022;2023-04-07T08:22:36;39.70;;;27.08;;
27003;SDS011;14546;47.590;19.022;2023-04-07T08:25:02;38.00;;;27.75;;
27003;SDS011;14546;47.590;19.022;2023-04-07T08:27:28;40.90;;;29.20;;
27003;SDS011;14546;47.590;19.022;2023-04-07T08:29:58;41.90;;;27.98;;
27003;SDS011;14546;47.590;19.022;2023-04-07T08:32:48;40.70;;;29.05;;
27003;SDS011;14546;47.590;19.022;2023-04-07T08:35:14;40.40;;;30.02;;
27003;SDS011;14546;47.590;19.022;2023-04-07T08:37:40;38.17;;;28.25;;
27003;SDS011;14546;47.590;19.022;2023-04-07T08:40:07;37.85;;;28.30;;
27003;SDS011;14546;47.590;19.022;2023-04-07T08:42:33;38.55;;;27.35;;
27003;SDS011;14546;47.590;19.022;2023-04-07T08:45:05;40.60;;;29.70;;
27003;SDS011;14546;47.590;19.022;2023-04-07T08:47:33;39.08;;;29.33;;
27003;SDS011;14546;47.590;19.022;2023-04-07T08:49:59;38.35;;;28.85;;
27003;SDS011;14546;47.590;19.022;2023-04-07T08:52:36;37.20;;;28.60;;
27003;SDS011;14546;47.590;19.022;2023-04-07T08:55:04;43.30;;;31.52;;
27003;SDS011;14546;47.590;19.022;2023-04-07T08:57:32;39.60;;;30.05;;
27003;SDS011;14546;47.590;19.022;2023-04-07T08:59:59;38.33;;;29.08;;
27003;SDS011;14546;47.590;19.022;2023-04-07T09:02:30;37.78;;;28.45;;
27003;SDS011;14546;47.590;19.022;2023-04-07T09:05:04;40.25;;;29.35;;
27003;SDS011;14546;47.590;19.022;2023-04-07T09:07:31;43.30;;;29.45;;
27003;SDS011;14546;47.590;19.022;2023-04-07T09:09:58;39.45;;;29.30;;
27003;SDS011;14546;47.590;19.022;2023-04-07T09:12:26;39.05;;;30.38;;
27003;SDS011;14546;47.590;19.022;2023-04-07T09:14:52;40.70;;;29.20;;
27003;SDS011;14546;47.590;19.022;2023-04-07T09:17:18;40.88;;;28.73;;
27003;SDS011;14546;47.590;19.022;2023-04-07T09:19:45;38.65;;;30.05;;
27003;SDS011;14546;47.590;19.022;2023-04-07T09:22:11;33.92;;;27.23;;
27003;SDS011;14546;47.590;19.022;2023-04-07T09:24:38;37.70;;;28.60;;
27003;SDS011;14546;47.590;19.022;2023-04-07T09:27:08;39.47;;;29.25;;
27003;SDS011;14546;47.590;19.022;2023-04-07T09:29:42;37.83;;;28.23;;
27003;SDS011;14546;47.590;19.022;2023-04-07T09:32:09;41.08;;;29.20;;
27003;SDS011;14546;47.590;19.022;2023-04-07T09:34:38;35.80;;;27.25;;
27003;SDS011;14546;47.590;19.022;2023-04-07T09:37:05;37.13;;;28.63;;
27003;SDS011;14546;47.590;19.022;2023-04-07T09:39:33;39.97;;;29.33;;
27003;SDS011;14546;47.590;19.022;2023-04-07T09:42:12;36.95;;;29.27;;
27003;SDS011;14546;47.590;19.022;2023-04-07T09:44:38;38.30;;;27.88;;
27003;SDS011;14546;47.590;19.022;2023-04-07T09:47:05;37.85;;;29.63;;
27003;SDS011;14546;47.590;19.022;2023-04-07T09:49:31;42.03;;;30.50;;
27003;SDS011;14546;47.590;19.022;2023-04-07T09:51:58;39.47;;;28.67;;
27003;SDS011;14546;47.590;19.022;2023-04-07T09:54:38;38.53;;;28.52;;
27003;SDS011;14546;47.590;19.022;2023-04-07T09:57:09;36.58;;;28.27;;
27003;SDS011;14546;47.590;19.022;2023-04-07T09:59:36;38.42;;;28.48;;
27003;SDS011;14546;47.590;19.022;2023-04-07T10:02:04;42.50;;;30.73;;
27003;SDS011;14546;47.590;19.022;2023-04-07T10:04:30;46.17;;;31.80;;
27003;SDS011;14546;47.590;19.022;2023-04-07T10:06:57;40.80;;;29.25;;
27003;SDS011;14546;47.590;19.022;2023-04-07T10:09:23;40.58;;;29.20;;
27003;SDS011;14546;47.590;19.022;2023-04-07T10:11:53;39.80;;;31.20;;
27003;SDS011;14546;47.590;19.022;2023-04-07T10:14:21;39.58;;;29.33;;
27003;SDS011;14546;47.590;19.022;2023-04-07T10:16:50;39.38;;;29.25;;
27003;SDS011;14546;47.590;19.022;2023-04-07T10:19:16;41.70;;;29.65;;
27003;SDS011;14546;47.590;19.022;2023-04-07T10:21:43;38.20;;;30.13;;
27003;SDS011;14546;47.590;19.022;2023-04-07T10:26:57;37.78;;;28.67;;
27003;SDS011;14546;47.590;19.022;2023-04-07T10:29:26;35.67;;;28.08;;
27003;SDS011;14546;47.590;19.022;2023-04-07T10:31:55;39.95;;;29.08;;
27003;SDS011;14546;47.590;19.022;2023-04-07T10:37:12;39.05;;;28.25;;
27003;SDS011;14546;47.590;19.022;2023-04-07T10:39:41;38.25;;;29.40;;
27003;SDS011;14546;47.590;19.022;2023-04-07T10:42:42;38.85;;;29.48;;
27003;SDS011;14546;47.590;19.022;2023-04-07T10:45:02;38.45;;;29.17;;
27003;SDS011;14546;47.590;19.022;2023-04-07T10:47:29;39.50;;;28.02;;
27003;SDS011;14546;47.590;19.022;2023-04-07T10:52:39;36.97;;;27.35;;
27003;SDS011;14546;47.590;19.022;2023-04-07T11:03:21;41.08;;;28.80;;
27003;SDS011;14546;47.590;19.022;2023-04-07T11:05:48;37.67;;;28.10;;
27003;SDS011;14546;47.590;19.022;2023-04-07T11:08:14;37.58;;;26.60;;
27003;SDS011;14546;47.590;19.022;2023-04-07T11:10:40;35.17;;;27.88;;
27003;SDS011;14546;47.590;19.022;2023-04-07T11:13:11;42.60;;;27.95;;
27003;SDS011;14546;47.590;19.022;2023-04-07T11:15:37;35.25;;;27.05;;
27003;SDS011;14546;47.590;19.022;2023-04-07T11:23:16;35.83;;;27.52;;
27003;SDS011;14546;47.590;19.022;2023-04-07T11:25:46;37.65;;;27.20;;
27003;SDS011;14546;47.590;19.022;2023-04-07T11:28:13;35.47;;;26.35;;
27003;SDS011;14546;47.590;19.022;2023-04-07T11:30:46;36.55;;;27.48;;
27003;SDS011;14546;47.590;19.022;2023-04-07T11:33:23;35.53;;;27.10;;
27003;SDS011;14546;47.590;19.022;2023-04-07T11:35:55;36.45;;;27.52;;
27003;SDS011;14546;47.590;19.022;2023-04-07T11:38:28;38.47;;;28.27;;
27003;SDS011;14546;47.590;19.022;2023-04-07T11:41:08;35.33;;;27.60;;
27003;SDS011;14546;47.590;19.022;2023-04-07T11:43:35;39.42;;;28.65;;
27003;SDS011;14546;47.590;19.022;2023-04-07T11:46:04;37.90;;;28.98;;
27003;SDS011;14546;47.590;19.022;2023-04-07T11:48:38;38.38;;;29.23;;
27003;SDS011;14546;47.590;19.022;2023-04-07T11:51:04;41.28;;;29.90;;
27003;SDS011;14546;47.590;19.022;2023-04-07T11:53:32;39.88;;;30.63;;
27003;SDS011;14546;47.590;19.022;2023-04-07T11:56:07;40.70;;;29.85;;
27003;SDS011;14546;47.590;19.022;2023-04-07T11:58:46;41.33;;;29.67;;
27003;SDS011;14546;47.590;19.022;2023-04-07T12:01:19;43.90;;;29.92;;
27003;SDS011;14546;47.590;19.022;2023-04-07T12:04:03;41.75;;;30.33;;
27003;SDS011;14546;47.590;19.022;2023-04-07T12:06:37;39.90;;;30.75;;
27003;SDS011;14546;47.590;19.022;2023-04-07T12:09:05;38.72;;;29.73;;
27003;SDS011;14546;47.590;19.022;2023-04-07T12:11:32;41.63;;;29.85;;
27003;SDS011;14546;47.590;19.022;2023-04-07T12:13:58;40.15;;;30.35;;
27003;SDS011;14546;47.590;19.022;2023-04-07T12:16:30;42.22;;;30.50;;
27003;SDS011;14546;47.590;19.022;2023-04-07T12:18:56;41.30;;;29.25;;
27003;SDS011;14546;47.590;19.022;2023-04-07T12:21:22;38.30;;;28.83;;
27003;SDS011;14546;47.590;19.022;2023-04-07T12:23:51;40.25;;;29.88;;
27003;SDS011;14546;47.590;19.022;2023-04-07T12:26:17;46.05;;;33.03;;
27003;SDS011;14546;47.590;19.022;2023-04-07T12:28:42;50.78;;;33.90;;
27003;SDS011;14546;47.590;19.022;2023-04-07T12:31:09;50.35;;;33.55;;
27003;SDS011;14546;47.590;19.022;2023-04-07T12:33:35;48.25;;;34.50;;
27003;SDS011;14546;47.590;19.022;2023-04-07T12:36:03;48.58;;;32.92;;
27003;SDS011;14546;47.590;19.022;2023-04-07T12:38:32;52.63;;;34.90;;
27003;SDS011;14546;47.590;19.022;2023-04-07T12:40:58;50.70;;;33.97;;
27003;SDS011;14546;47.590;19.022;2023-04-07T12:43:28;44.83;;;31.55;;
27003;SDS011;14546;47.590;19.022;2023-04-07T12:45:54;46.58;;;33.72;;
27003;SDS011;14546;47.590;19.022;2023-04-07T12:48:23;44.80;;;33.28;;
27003;SDS011;14546;47.590;19.022;2023-04-07T12:50:51;46.63;;;33.83;;
27003;SDS011;14546;47.590;19.022;2023-04-07T12:53:17;44.03;;;33.40;;
27003;SDS011;14546;47.590;19.022;2023-04-07T12:55:43;46.25;;;32.40;;
27003;SDS011;14546;47.590;19.022;2023-04-07T12:58:09;54.50;;;35.38;;
27003;SDS011;14546;47.590;19.022;2023-04-07T13:00:34;51.17;;;34.55;;
27003;SDS011;14546;47.590;19.022;2023-04-07T13:03:00;49.83;;;34.38;;
27003;SDS011;14546;47.590;19.022;2023-04-07T13:05:27;54.33;;;34.47;;
27003;SDS011;14546;47.590;19.022;2023-04-07T13:07:53;51.65;;;35.30;;
27003;SDS011;14546;47.590;19.022;2023-04-07T13:10:22;55.78;;;33.92;;
27003;SDS011;14546;47.590;19.022;2023-04-07T13:12:47;53.28;;;36.35;;
27003;SDS011;14546;47.590;19.022;2023-04-07T13:15:16;49.42;;;35.22;;
27003;SDS011;14546;47.590;19.022;2023-04-07T13:17:41;50.22;;;30.08;;
27003;SDS011;14546;47.590;19.022;2023-04-07T13:20:09;49.33;;;35.08;;
27003;SDS011;14546;47.590;19.022;2023-04-07T13:22:35;47.60;;;34.55;;
27003;SDS011;14546;47.590;19.022;2023-04-07T13:25:01;49.30;;;34.28;;
27003;SDS011;14546;47.590;19.022;2023-04-07T13:27:27;41.53;;;32.50;;
27003;SDS011;14546;47.590;19.022;2023-04-07T13:29:53;39.22;;;30.25;;
27003;SDS011;14546;47.590;19.022;2023-04-07T13:32:19;44.90;;;32.03;;
27003;SDS011;14546;47.590;19.022;2023-04-07T13:34:44;48.00;;;33.53;;
27003;SDS011;14546;47.590;19.022;2023-04-07T13:37:10;47.50;;;33.08;;
27003;SDS011;14546;47.590;19.022;2023-04-07T13:39:36;46.88;;;32.22;;
27003;SDS011;14546;47.590;19.022;2023-04-07T13:42:02;42.38;;;31.83;;
27003;SDS011;14546;47.590;19.022;2023-04-07T13:44:28;46.70;;;33.55;;
27003;SDS011;14546;47.590;19.022;2023-04-07T13:46:55;42.40;;;31.60;;
27003;SDS011;14546;47.590;19.022;2023-04-07T13:49:22;41.10;;;31.13;;
27003;SDS011;14546;47.590;19.022;2023-04-07T13:51:47;41.40;;;30.50;;
27003;SDS011;14546;47.590;19.022;2023-04-07T13:54:13;40.08;;;29.52;;
27003;SDS011;14546;47.590;19.022;2023-04-07T13:56:40;39.00;;;29.95;;
27003;SDS011;14546;47.590;19.022;2023-04-07T13:59:06;39.95;;;29.05;;
27003;SDS011;14546;47.590;19.022;2023-04-07T14:01:33;38.28;;;29.45;;
27003;SDS011;14546;47.590;19.022;2023-04-07T14:03:59;37.35;;;28.48;;
27003;SDS011;14546;47.590;19.022;2023-04-07T14:06:29;40.28;;;28.08;;
27003;SDS011;14546;47.590;19.022;2023-04-07T14:08:56;39.78;;;28.80;;
27003;SDS011;14546;47.590;19.022;2023-04-07T14:11:22;36.58;;;27.20;;
27003;SDS011;14546;47.590;19.022;2023-04-07T14:13:48;42.78;;;30.38;;
27003;SDS011;14546;47.590;19.022;2023-04-07T14:16:15;38.72;;;29.98;;
27003;SDS011;14546;47.590;19.022;2023-04-07T14:18:41;42.85;;;30.15;;
27003;SDS011;14546;47.590;19.022;2023-04-07T14:21:07;39.53;;;29.35;;
27003;SDS011;14546;47.590;19.022;2023-04-07T14:23:33;40.00;;;28.98;;
27003;SDS011;14546;47.590;19.022;2023-04-07T14:25:59;41.25;;;29.30;;
27003;SDS011;14546;47.590;19.022;2023-04-07T14:28:25;40.00;;;28.40;;
27003;SDS011;14546;47.590;19.022;2023-04-07T14:30:52;41.08;;;30.83;;
27003;SDS011;14546;47.590;19.022;2023-04-07T14:33:19;42.22;;;30.23;;
27003;SDS011;14546;47.590;19.022;2023-04-07T14:35:46;41.83;;;31.70;;
27003;SDS011;14546;47.590;19.022;2023-04-07T14:38:12;40.08;;;30.17;;
27003;SDS011;14546;47.590;19.022;2023-04-07T14:40:37;37.60;;;29.00;;